createdAt,value
2019-05-10T00:01:03.403Z,12.00
2019-05-10T00:03:03.377Z,11.80
2019-05-10T00:04:03.272Z,12.20
2019-05-10T00:05:04.151Z,11.80
2019-05-10T00:06:03.516Z,11.50
2019-05-10T00:07:03.384Z,12.30
2019-05-10T00:08:03.325Z,12.90
2019-05-10T00:09:03.392Z,12.90
2019-05-10T00:10:03.350Z,11.30
2019-05-10T00:11:03.564Z,11.90
2019-05-10T00:13:03.894Z,14.40
2019-05-10T00:14:03.442Z,13.40
2019-05-10T00:15:03.418Z,13.30
2019-05-10T00:16:03.545Z,13.80
2019-05-10T00:18:04.498Z,12.10
2019-05-10T00:20:04.005Z,12.60
2019-05-10T00:21:04.329Z,13.80
2019-05-10T00:22:04.111Z,12.00
2019-05-10T00:23:03.524Z,12.40
2019-05-10T00:24:04.530Z,13.00
2019-05-10T00:26:04.298Z,13.00
2019-05-10T00:27:04.390Z,12.20
2019-05-10T00:28:03.589Z,12.00
2019-05-10T00:30:04.022Z,12.40
2019-05-10T00:31:03.669Z,12.60
2019-05-10T00:33:05.151Z,12.50
2019-05-10T00:34:06.487Z,12.50
2019-05-10T00:35:03.682Z,14.80
2019-05-10T00:36:03.694Z,12.90
2019-05-10T00:37:03.709Z,12.80
2019-05-10T00:38:03.719Z,13.50
2019-05-10T00:39:03.737Z,12.40
2019-05-10T00:40:03.749Z,13.20
2019-05-10T00:41:03.764Z,12.60
2019-05-10T00:42:03.774Z,12.70
2019-05-10T00:43:03.835Z,13.40
2019-05-10T00:44:03.804Z,12.80
2019-05-10T00:45:03.892Z,14.20
2019-05-10T00:46:04.322Z,12.20
2019-05-10T00:47:04.325Z,12.00
2019-05-10T00:48:03.909Z,12.10
2019-05-10T00:49:04.134Z,12.50
2019-05-10T00:50:03.880Z,12.80
2019-05-10T00:51:05.204Z,13.70
2019-05-10T00:52:03.905Z,12.00
2019-05-10T00:53:04.022Z,14.80
2019-05-10T00:54:03.927Z,12.80
2019-05-10T00:55:17.800Z,11.30
2019-05-10T00:56:03.955Z,16.10
2019-05-10T00:57:03.970Z,11.50
2019-05-10T00:58:04.039Z,11.50
2019-05-10T00:59:04.069Z,13.40
2019-05-10T01:00:04.717Z,13.30
2019-05-10T01:01:04.034Z,11.90
2019-05-10T01:02:04.069Z,12.80
2019-05-10T01:03:04.139Z,11.00
2019-05-10T01:04:04.061Z,13.10
2019-05-10T01:05:04.307Z,11.20
2019-05-10T01:06:04.096Z,13.50
2019-05-10T01:07:04.102Z,11.40
2019-05-10T01:08:04.114Z,9.30
2019-05-10T01:09:04.124Z,12.80
2019-05-10T01:10:04.146Z,9.00
2019-05-10T01:11:04.157Z,11.90
2019-05-10T01:12:04.174Z,9.10
2019-05-10T01:13:04.202Z,12.30
2019-05-10T01:14:04.195Z,12.10
2019-05-10T01:15:04.674Z,9.20
2019-05-10T01:16:04.271Z,11.40
2019-05-10T01:17:04.273Z,11.20
2019-05-10T01:18:04.242Z,10.40
2019-05-10T01:20:04.311Z,10.50
2019-05-10T01:22:04.495Z,10.50
2019-05-10T01:23:05.119Z,9.10
2019-05-10T01:24:04.436Z,11.40
2019-05-10T01:25:04.462Z,9.70
2019-05-10T01:26:06.223Z,10.50
2019-05-10T01:27:07.202Z,10.20
2019-05-10T01:29:05.164Z,14.70
2019-05-10T01:31:04.909Z,10.30
2019-05-10T01:32:05.638Z,13.00
2019-05-10T01:33:04.657Z,14.10
2019-05-10T01:34:04.630Z,13.70
2019-05-10T01:35:04.463Z,12.20
2019-05-10T01:36:05.733Z,11.20
2019-05-10T01:37:05.704Z,11.60
2019-05-10T01:38:05.193Z,11.00
2019-05-10T01:39:04.699Z,11.20
2019-05-10T01:40:05.019Z,11.00
2019-05-10T01:41:04.749Z,11.90
2019-05-10T01:43:04.574Z,10.80
2019-05-10T01:44:04.578Z,10.40
2019-05-10T01:45:04.960Z,11.20
2019-05-10T01:46:04.793Z,12.60
2019-05-10T01:47:05.187Z,9.80
2019-05-10T01:49:04.943Z,12.60
2019-05-10T01:52:04.678Z,12.00
2019-05-10T01:53:04.940Z,9.30
2019-05-10T01:54:04.709Z,11.20
2019-05-10T01:55:04.718Z,14.00
2019-05-10T01:57:05.343Z,8.80
2019-05-10T01:58:04.834Z,8.80
2019-05-10T01:59:05.342Z,10.80
2019-05-10T02:02:07.944Z,8.30
2019-05-10T02:03:06.841Z,10.10
2019-05-10T02:05:07.999Z,11.20
2019-05-10T02:06:05.857Z,9.30
2019-05-10T02:08:04.886Z,10.60
2019-05-10T02:10:06.874Z,8.90
2019-05-10T02:11:04.921Z,10.90
2019-05-10T02:12:04.931Z,14.00
2019-05-10T02:15:05.322Z,14.10
2019-05-10T02:16:04.982Z,11.00
2019-05-10T02:17:05.154Z,11.10
2019-05-10T02:18:05.006Z,11.30
2019-05-10T02:19:05.122Z,14.40
2019-05-10T02:20:05.538Z,12.40
2019-05-10T02:22:05.543Z,10.50
2019-05-10T02:23:05.071Z,12.20
2019-05-10T02:24:05.938Z,10.70
2019-05-10T02:25:05.109Z,12.60
2019-05-10T02:26:09.498Z,11.90
2019-05-10T02:27:05.528Z,12.50
2019-05-10T02:29:06.161Z,11.70
2019-05-10T02:30:05.172Z,10.00
2019-05-10T02:31:06.337Z,12.50
2019-05-10T02:32:05.197Z,10.80
2019-05-10T02:33:05.255Z,11.10
2019-05-10T02:34:05.476Z,13.60
2019-05-10T02:35:05.231Z,12.00
2019-05-10T02:36:05.239Z,11.20
2019-05-10T02:37:05.248Z,12.60
2019-05-10T02:38:05.275Z,12.30
2019-05-10T02:39:05.364Z,12.10
2019-05-10T02:40:05.288Z,13.10
2019-05-10T02:41:05.321Z,13.60
2019-05-10T02:42:05.312Z,16.20
2019-05-10T02:43:05.328Z,12.10
2019-05-10T02:44:05.347Z,14.20
2019-05-10T02:45:05.412Z,13.70
2019-05-10T02:46:05.382Z,15.90
2019-05-10T02:48:06.394Z,15.90
2019-05-10T02:50:05.919Z,13.80
2019-05-10T02:51:06.225Z,14.90
2019-05-10T02:52:05.463Z,16.50
2019-05-10T02:53:05.493Z,16.30
2019-05-10T02:55:05.728Z,16.90
2019-05-10T02:57:05.585Z,17.20
2019-05-10T02:59:06.318Z,18.10
2019-05-10T03:00:05.960Z,17.80
2019-05-10T03:03:06.504Z,15.50
2019-05-10T03:04:07.032Z,19.70
2019-05-10T03:06:05.725Z,21.10
2019-05-10T03:07:05.637Z,18.80
2019-05-10T03:08:05.640Z,19.40
2019-05-10T03:09:05.655Z,18.00
2019-05-10T03:10:05.675Z,17.60
2019-05-10T03:11:05.679Z,19.50
2019-05-10T03:12:05.843Z,20.20
2019-05-10T03:14:05.723Z,16.80
2019-05-10T03:15:05.731Z,17.30
2019-05-10T03:16:05.761Z,16.90
2019-05-10T03:17:05.791Z,16.60
2019-05-10T03:18:05.775Z,17.50
2019-05-10T03:19:05.802Z,17.10
2019-05-10T03:20:05.850Z,17.30
2019-05-10T03:21:05.856Z,19.00
2019-05-10T03:22:05.933Z,19.10
2019-05-10T03:23:05.831Z,15.20
2019-05-10T03:24:05.845Z,16.80
2019-05-10T03:25:06.361Z,18.40
2019-05-10T03:26:06.967Z,18.40
2019-05-10T03:27:06.497Z,17.30
2019-05-10T03:28:05.932Z,14.40
2019-05-10T03:29:05.911Z,18.00
2019-05-10T03:30:05.933Z,15.50
2019-05-10T03:31:06.147Z,14.70
2019-05-10T03:32:06.354Z,14.10
2019-05-10T03:33:07.886Z,16.10
2019-05-10T03:34:06.748Z,16.60
2019-05-10T03:36:06.830Z,14.40
2019-05-10T03:40:07.010Z,19.00
2019-05-10T03:41:06.181Z,16.80
2019-05-10T03:42:06.074Z,16.00
2019-05-10T03:43:06.129Z,15.40
2019-05-10T03:44:06.094Z,15.10
2019-05-10T03:45:06.154Z,15.80
2019-05-10T03:47:06.445Z,17.10
2019-05-10T03:48:06.696Z,15.00
2019-05-10T03:49:06.155Z,15.80
2019-05-10T03:50:06.168Z,16.30
2019-05-10T03:51:06.179Z,17.50
2019-05-10T03:52:06.195Z,17.60
2019-05-10T03:53:06.221Z,16.70
2019-05-10T03:54:06.671Z,15.00
2019-05-10T03:55:06.641Z,15.90
2019-05-10T03:56:07.020Z,15.80
2019-05-10T03:57:13.596Z,17.80
2019-05-10T03:58:07.333Z,19.00
2019-05-10T04:05:06.372Z,17.80
2019-05-10T04:06:06.490Z,15.80
2019-05-10T04:09:07.103Z,16.60
2019-05-10T04:10:07.003Z,17.80
2019-05-10T04:11:06.427Z,16.90
2019-05-10T04:12:06.445Z,17.50
2019-05-10T04:13:06.653Z,15.30
2019-05-10T04:14:06.471Z,15.90
2019-05-10T04:15:06.481Z,15.40
2019-05-10T04:16:06.503Z,16.20
2019-05-10T04:17:07.180Z,18.50
2019-05-10T04:18:07.301Z,19.40
2019-05-10T04:19:06.537Z,14.80
2019-05-10T04:20:07.170Z,18.90
2019-05-10T04:21:06.559Z,15.30
2019-05-10T04:24:07.146Z,16.40
2019-05-10T04:25:06.610Z,20.00
2019-05-10T04:26:06.706Z,18.00
2019-05-10T04:27:06.642Z,16.10
2019-05-10T04:28:06.653Z,17.30
2019-05-10T04:29:07.153Z,16.30
2019-05-10T04:30:08.110Z,22.20
2019-05-10T04:31:07.999Z,14.80
2019-05-10T04:32:06.738Z,17.30
2019-05-10T04:36:12.022Z,15.80
2019-05-10T04:37:08.360Z,16.90
2019-05-10T04:38:06.903Z,15.40
2019-05-10T04:39:07.613Z,15.70
2019-05-10T04:40:06.792Z,15.20
2019-05-10T04:41:07.577Z,17.00
2019-05-10T04:42:06.823Z,19.10
2019-05-10T04:44:06.922Z,16.30
2019-05-10T04:46:07.929Z,15.90
2019-05-10T04:47:07.444Z,18.40
2019-05-10T04:48:06.982Z,18.10
2019-05-10T04:49:06.983Z,16.20
2019-05-10T04:51:06.948Z,16.10
2019-05-10T04:52:06.963Z,15.70
2019-05-10T04:55:07.100Z,15.10
2019-05-10T04:56:07.666Z,16.90
2019-05-10T04:57:07.599Z,15.90
2019-05-10T04:58:07.129Z,17.00
2019-05-10T05:01:07.059Z,17.30
2019-05-10T05:02:07.108Z,17.30
2019-05-10T05:03:08.241Z,18.00
2019-05-10T05:05:07.131Z,19.00
2019-05-10T05:06:07.124Z,16.90
2019-05-10T05:07:07.188Z,16.40
2019-05-10T05:08:07.741Z,18.10
2019-05-10T05:09:08.523Z,18.80
2019-05-10T05:10:07.421Z,16.10
2019-05-10T05:12:07.197Z,17.10
2019-05-10T05:14:09.590Z,15.70
2019-05-10T05:17:08.133Z,16.20
2019-05-10T05:18:07.356Z,16.30
2019-05-10T05:19:07.286Z,16.40
2019-05-10T05:20:07.402Z,15.20
2019-05-10T05:21:07.376Z,16.40
2019-05-10T05:23:07.336Z,17.10
2019-05-10T05:24:07.621Z,16.30
2019-05-10T05:26:08.305Z,16.90
2019-05-10T05:27:07.693Z,17.10
2019-05-10T05:28:08.566Z,16.90
2019-05-10T05:29:07.944Z,17.50
2019-05-10T05:31:07.477Z,15.80
2019-05-10T05:32:07.567Z,15.30
2019-05-10T05:33:07.487Z,15.50
2019-05-10T05:34:07.486Z,18.80
2019-05-10T05:35:07.619Z,16.00
2019-05-10T05:36:08.300Z,16.10
2019-05-10T05:37:07.546Z,17.90
2019-05-10T05:38:07.559Z,15.60
2019-05-10T05:40:07.935Z,16.60
2019-05-10T05:41:08.943Z,15.10
2019-05-10T05:42:07.745Z,16.20
2019-05-10T05:43:09.843Z,13.60
2019-05-10T05:44:08.445Z,15.80
2019-05-10T05:45:07.759Z,15.60
2019-05-10T05:46:07.652Z,16.70
2019-05-10T05:48:08.273Z,15.60
2019-05-10T05:50:07.789Z,14.70
2019-05-10T05:51:07.760Z,13.70
2019-05-10T05:52:08.155Z,15.00
2019-05-10T05:54:09.198Z,14.40
2019-05-10T05:55:07.970Z,15.10
2019-05-10T05:56:12.706Z,15.50
2019-05-10T05:57:07.785Z,15.20
2019-05-10T06:00:08.132Z,15.60
2019-05-10T06:02:09.587Z,16.20
2019-05-10T06:03:08.059Z,16.20
2019-05-10T06:04:12.220Z,16.50
2019-05-10T06:05:07.845Z,15.00
2019-05-10T06:06:21.782Z,16.40
2019-05-10T06:07:08.822Z,14.80
2019-05-10T06:08:21.398Z,14.50
2019-05-10T06:09:08.615Z,15.40
2019-05-10T06:10:10.354Z,15.50
2019-05-10T06:12:12.561Z,14.70
2019-05-10T06:13:07.969Z,15.10
2019-05-10T06:14:10.863Z,14.60
2019-05-10T06:15:08.403Z,14.50
2019-05-10T06:17:08.669Z,13.10
2019-05-10T06:18:09.681Z,13.80
2019-05-10T06:20:08.592Z,12.80
2019-05-10T06:21:08.351Z,13.40
2019-05-10T06:22:08.063Z,15.00
2019-05-10T06:23:08.077Z,11.80
2019-05-10T06:24:13.336Z,12.30
2019-05-10T06:25:08.131Z,12.30
2019-05-10T06:26:21.416Z,14.60
2019-05-10T06:27:08.114Z,12.20
2019-05-10T06:28:25.361Z,11.90
2019-05-10T06:29:16.381Z,12.80
2019-05-10T06:30:08.170Z,11.80
2019-05-10T06:31:08.233Z,13.00
2019-05-10T06:32:08.186Z,11.90
2019-05-10T06:33:12.704Z,11.70
2019-05-10T06:34:08.344Z,13.20
2019-05-10T06:35:08.238Z,11.00
2019-05-10T06:36:09.796Z,12.60
2019-05-10T06:37:08.323Z,12.60
2019-05-10T06:38:08.263Z,15.10
2019-05-10T06:39:08.269Z,11.00
2019-05-10T06:40:08.282Z,11.60
2019-05-10T06:41:10.153Z,11.90
2019-05-10T06:42:08.322Z,13.00
2019-05-10T06:43:13.629Z,12.90
2019-05-10T06:44:08.341Z,14.00
2019-05-10T06:45:14.306Z,13.10
2019-05-10T06:46:08.367Z,11.90
2019-05-10T06:47:11.181Z,12.10
2019-05-10T06:48:08.379Z,12.50
2019-05-10T06:49:10.901Z,12.50
2019-05-10T06:50:08.501Z,12.50
2019-05-10T06:51:09.343Z,12.20
2019-05-10T06:52:08.450Z,12.50
2019-05-10T06:53:10.782Z,13.20
2019-05-10T06:54:08.517Z,11.00
2019-05-10T06:55:08.462Z,11.50
2019-05-10T06:56:08.479Z,11.30
2019-05-10T06:57:11.212Z,10.00
2019-05-10T06:58:08.499Z,9.30
2019-05-10T06:59:13.651Z,10.20
2019-05-10T07:00:08.522Z,8.80
2019-05-10T07:01:08.542Z,9.60
2019-05-10T07:02:08.550Z,8.80
2019-05-10T07:03:08.567Z,8.10
2019-05-10T07:04:08.574Z,8.00
2019-05-10T07:05:08.587Z,7.90
2019-05-10T07:06:08.597Z,8.10
2019-05-10T07:07:10.279Z,7.70
2019-05-10T07:08:16.362Z,7.40
2019-05-10T07:09:08.642Z,7.50
2019-05-10T07:10:18.251Z,10.00
2019-05-10T07:11:08.664Z,8.90
2019-05-10T07:12:09.452Z,7.40
2019-05-10T07:13:08.750Z,10.50
2019-05-10T07:14:08.710Z,8.40
2019-05-10T07:15:08.739Z,7.80
2019-05-10T07:16:08.738Z,7.10
2019-05-10T07:17:08.746Z,6.50
2019-05-10T07:18:08.754Z,6.60
2019-05-10T07:19:08.766Z,5.40
2019-05-10T07:20:08.787Z,6.40
2019-05-10T07:21:08.836Z,5.60
2019-05-10T07:22:08.805Z,5.90
2019-05-10T07:23:08.841Z,4.80
2019-05-10T07:24:08.834Z,5.50
2019-05-10T07:25:08.848Z,6.60
2019-05-10T07:26:09.936Z,4.90
2019-05-10T07:27:08.871Z,5.60
2019-05-10T07:28:09.527Z,5.40
2019-05-10T07:29:08.898Z,6.60
2019-05-10T07:30:08.910Z,6.30
2019-05-10T07:31:08.981Z,6.00
2019-05-10T07:32:08.939Z,5.20
2019-05-10T07:33:08.955Z,5.70
2019-05-10T07:34:09.771Z,5.90
2019-05-10T07:35:08.978Z,5.20
2019-05-10T07:36:14.660Z,5.30
2019-05-10T07:37:09.003Z,6.20
2019-05-10T07:38:09.017Z,5.50
2019-05-10T07:39:10.761Z,6.20
2019-05-10T07:40:09.043Z,6.00
2019-05-10T07:41:09.314Z,5.20
2019-05-10T07:42:09.219Z,6.50
2019-05-10T07:43:09.081Z,6.70
2019-05-10T07:44:10.609Z,5.70
2019-05-10T07:45:09.125Z,5.60
2019-05-10T07:46:09.188Z,5.90
2019-05-10T07:47:09.133Z,5.10
2019-05-10T07:48:10.409Z,5.40
2019-05-10T07:49:09.159Z,6.70
2019-05-10T07:50:10.113Z,4.60
2019-05-10T07:51:09.186Z,5.50
2019-05-10T07:52:09.197Z,5.10
2019-05-10T07:53:09.215Z,5.20
2019-05-10T07:54:09.229Z,6.40
2019-05-10T07:55:10.628Z,5.50
2019-05-10T07:56:09.306Z,4.30
2019-05-10T07:57:09.263Z,5.30
2019-05-10T07:58:09.277Z,5.40
2019-05-10T07:59:09.292Z,5.90
2019-05-10T08:00:09.311Z,6.10
2019-05-10T08:01:09.319Z,5.50
2019-05-10T08:02:12.922Z,6.60
2019-05-10T08:03:16.562Z,5.40
2019-05-10T08:04:12.775Z,4.80
2019-05-10T08:05:13.747Z,6.00
2019-05-10T08:06:09.399Z,5.10
2019-05-10T08:07:10.470Z,6.30
2019-05-10T08:08:09.672Z,5.30
2019-05-10T08:09:09.779Z,5.10
2019-05-10T08:10:09.445Z,5.00
2019-05-10T08:11:09.457Z,5.50
2019-05-10T08:12:12.857Z,6.20
2019-05-10T08:13:09.483Z,7.30
2019-05-10T08:14:11.273Z,5.00
2019-05-10T08:15:09.517Z,5.60
2019-05-10T08:16:11.784Z,5.90
2019-05-10T08:17:09.549Z,5.60
2019-05-10T08:18:09.941Z,5.90
2019-05-10T08:19:09.559Z,5.10
2019-05-10T08:20:25.619Z,5.70
2019-05-10T08:21:20.851Z,5.80
2019-05-10T08:22:09.609Z,5.70
2019-05-10T08:23:09.618Z,5.10
2019-05-10T08:24:16.090Z,5.10
2019-05-10T08:25:09.650Z,4.90
2019-05-10T08:26:11.094Z,6.10
2019-05-10T08:27:13.989Z,7.10
2019-05-10T08:28:09.689Z,3.80
2019-05-10T08:29:13.644Z,3.60
2019-05-10T08:30:22.579Z,4.50
2019-05-10T08:31:12.192Z,6.20
2019-05-10T08:32:09.735Z,5.30
2019-05-10T08:33:11.985Z,4.80
2019-05-10T08:34:11.707Z,4.20
2019-05-10T08:35:16.385Z,7.70
2019-05-10T08:36:11.984Z,5.40
2019-05-10T08:37:09.804Z,5.70
2019-05-10T08:38:09.812Z,5.20
2019-05-10T08:39:13.096Z,6.00
2019-05-10T08:40:09.841Z,5.00
2019-05-10T08:41:14.780Z,7.10
2019-05-10T08:42:30.512Z,5.90
2019-05-10T08:43:15.496Z,5.20
2019-05-10T08:44:16.684Z,5.20
2019-05-10T08:45:12.385Z,4.30
2019-05-10T08:46:11.972Z,7.20
2019-05-10T08:47:16.175Z,5.30
2019-05-10T08:48:09.937Z,5.70
2019-05-10T08:49:09.965Z,4.50
2019-05-10T08:50:22.277Z,4.30
2019-05-10T08:51:12.323Z,4.90
2019-05-10T08:52:12.055Z,5.50
2019-05-10T08:53:16.061Z,3.50
2019-05-10T08:54:12.049Z,6.10
2019-05-10T08:55:12.125Z,4.60
2019-05-10T08:56:13.966Z,4.20
2019-05-10T08:57:17.907Z,6.90
2019-05-10T08:58:12.243Z,5.00
2019-05-10T08:59:16.357Z,5.60
2019-05-10T09:00:10.095Z,5.10
2019-05-10T09:01:20.421Z,5.30
2019-05-10T09:02:12.629Z,4.40
2019-05-10T09:03:17.865Z,4.40
2019-05-10T09:04:11.684Z,8.20
2019-05-10T09:05:12.271Z,4.60
2019-05-10T09:06:14.299Z,3.90
2019-05-10T09:07:11.974Z,4.70
2019-05-10T09:08:11.593Z,6.70
2019-05-10T09:09:12.361Z,5.80
2019-05-10T09:10:12.572Z,4.20
2019-05-10T09:11:10.243Z,6.60
2019-05-10T09:12:12.231Z,6.70
2019-05-10T09:13:12.653Z,4.90
2019-05-10T09:14:12.303Z,5.90
2019-05-10T09:15:13.322Z,4.40
2019-05-10T09:16:13.340Z,4.70
2019-05-10T09:17:14.792Z,6.50
2019-05-10T09:18:12.590Z,3.10
2019-05-10T09:19:12.327Z,5.00
2019-05-10T09:20:12.015Z,5.40
2019-05-10T09:21:13.603Z,6.10
2019-05-10T09:22:12.361Z,3.90
2019-05-10T09:23:15.360Z,3.30
2019-05-10T09:25:12.632Z,4.90
2019-05-10T09:26:16.183Z,4.20
2019-05-10T09:27:12.782Z,3.40
2019-05-10T09:28:15.248Z,4.60
2019-05-10T09:29:12.155Z,4.70
2019-05-10T09:30:14.031Z,3.70
2019-05-10T09:31:18.591Z,3.20
2019-05-10T09:32:12.585Z,2.80
2019-05-10T09:33:14.148Z,4.80
2019-05-10T09:34:12.266Z,4.60
2019-05-10T09:35:12.526Z,3.80
2019-05-10T09:36:12.525Z,4.20
2019-05-10T09:37:16.030Z,3.20
2019-05-10T09:38:12.566Z,2.70
2019-05-10T09:39:17.619Z,4.20
2019-05-10T09:40:13.371Z,3.30
2019-05-10T09:41:11.979Z,3.50
2019-05-10T09:42:24.790Z,3.50
2019-05-10T09:43:12.457Z,3.90
2019-05-10T09:44:12.919Z,4.30
2019-05-10T09:45:12.806Z,4.10
2019-05-10T09:46:11.492Z,4.20
2019-05-10T09:47:12.073Z,3.60
2019-05-10T09:48:12.145Z,5.30
2019-05-10T09:49:15.759Z,3.30
2019-05-10T09:50:12.637Z,4.30
2019-05-10T09:51:13.474Z,4.10
2019-05-10T09:52:12.632Z,6.00
2019-05-10T09:53:13.544Z,3.10
2019-05-10T09:54:10.870Z,4.80
2019-05-10T09:55:14.847Z,4.60
2019-05-10T09:56:10.855Z,4.90
2019-05-10T09:57:10.871Z,4.40
2019-05-10T09:58:10.885Z,6.50
2019-05-10T09:59:10.896Z,5.00
2019-05-10T10:00:10.921Z,4.30
2019-05-10T10:01:17.739Z,5.00
2019-05-10T10:02:15.658Z,3.00
2019-05-10T10:03:12.838Z,3.70
2019-05-10T10:04:10.967Z,7.10
2019-05-10T10:05:10.979Z,3.80
2019-05-10T10:06:11.530Z,3.50
2019-05-10T10:07:11.006Z,5.20
2019-05-10T10:08:11.206Z,5.80
2019-05-10T10:09:11.283Z,6.50
2019-05-10T10:10:12.695Z,5.90
2019-05-10T10:11:15.758Z,5.00
2019-05-10T10:12:11.073Z,4.90
2019-05-10T10:13:14.046Z,7.10
2019-05-10T10:14:11.105Z,5.80
2019-05-10T10:15:18.795Z,5.10
2019-05-10T10:16:14.806Z,4.60
2019-05-10T10:17:11.144Z,4.10
2019-05-10T10:18:12.571Z,4.80
2019-05-10T10:19:11.173Z,4.30
2019-05-10T10:20:11.195Z,4.70
2019-05-10T10:21:13.258Z,5.80
2019-05-10T10:22:13.137Z,6.50
2019-05-10T10:23:11.231Z,5.30
2019-05-10T10:24:15.730Z,4.90
2019-05-10T10:25:11.257Z,5.30
2019-05-10T10:26:12.683Z,4.60
2019-05-10T10:27:11.290Z,6.10
2019-05-10T10:28:17.086Z,4.10
2019-05-10T10:29:11.314Z,6.40
2019-05-10T10:30:17.813Z,4.60
2019-05-10T10:31:25.059Z,5.10
2019-05-10T10:32:11.364Z,5.70
2019-05-10T10:33:16.017Z,4.90
2019-05-10T10:34:11.397Z,5.00
2019-05-10T10:35:13.202Z,4.00
2019-05-10T10:36:11.408Z,4.50
2019-05-10T10:37:14.556Z,5.30
2019-05-10T10:38:11.446Z,4.20
2019-05-10T10:39:11.445Z,4.20
2019-05-10T10:40:14.966Z,7.60
2019-05-10T10:41:11.480Z,4.90
2019-05-10T10:42:13.241Z,5.30
2019-05-10T10:43:11.499Z,4.90
2019-05-10T10:44:11.528Z,5.60
2019-05-10T10:45:11.532Z,4.50
2019-05-10T10:46:12.619Z,5.70
2019-05-10T10:47:11.567Z,5.50
2019-05-10T10:48:13.012Z,5.80
2019-05-10T10:49:14.443Z,6.20
2019-05-10T10:50:13.619Z,7.50
2019-05-10T10:51:11.627Z,5.80
2019-05-10T10:52:13.472Z,6.30
2019-05-10T10:53:11.650Z,4.10
2019-05-10T10:54:11.663Z,4.70
2019-05-10T10:55:13.344Z,5.60
2019-05-10T10:56:11.682Z,5.80
2019-05-10T10:57:11.694Z,5.40
2019-05-10T10:58:11.711Z,5.00
2019-05-10T10:59:11.724Z,5.70
2019-05-10T11:00:11.746Z,4.10
2019-05-10T11:01:23.611Z,5.20
2019-05-10T11:02:34.113Z,5.70
2019-05-10T11:03:11.821Z,6.20
2019-05-10T11:04:11.809Z,4.50
2019-05-10T11:05:11.834Z,5.80
2019-05-10T11:06:15.228Z,5.80
2019-05-10T11:07:11.863Z,4.80
2019-05-10T11:08:11.879Z,5.30
2019-05-10T11:09:11.871Z,5.90
2019-05-10T11:10:18.570Z,5.00
2019-05-10T11:11:11.895Z,7.50
2019-05-10T11:12:14.649Z,5.10
2019-05-10T11:13:18.714Z,6.60
2019-05-10T11:14:11.930Z,5.90
2019-05-10T11:15:16.484Z,5.30
2019-05-10T11:16:15.751Z,6.70
2019-05-10T11:17:11.977Z,8.00
2019-05-10T11:18:11.992Z,5.80
2019-05-10T11:19:15.479Z,6.20
2019-05-10T11:20:12.013Z,5.50
2019-05-10T11:21:12.037Z,6.20
2019-05-10T11:22:12.044Z,6.50
2019-05-10T11:23:12.063Z,6.90
2019-05-10T11:24:17.999Z,4.70
2019-05-10T11:25:12.822Z,4.30
2019-05-10T11:26:12.101Z,5.10
2019-05-10T11:27:15.838Z,7.50
2019-05-10T11:28:12.179Z,6.40
2019-05-10T11:29:13.994Z,5.70
2019-05-10T11:30:12.705Z,5.30
2019-05-10T11:31:12.320Z,7.20
2019-05-10T11:32:16.667Z,6.40
2019-05-10T11:33:26.082Z,5.70
2019-05-10T11:34:12.417Z,4.70
2019-05-10T11:35:22.704Z,5.10
2019-05-10T11:36:12.752Z,5.80
2019-05-10T11:37:12.273Z,6.00
2019-05-10T11:38:16.094Z,6.10
2019-05-10T11:39:25.317Z,6.70
2019-05-10T11:40:12.305Z,6.20
2019-05-10T11:41:20.682Z,5.40
2019-05-10T11:42:15.410Z,5.50
2019-05-10T11:43:12.361Z,4.80
2019-05-10T11:44:12.498Z,6.30
2019-05-10T11:45:12.393Z,4.00
2019-05-10T11:46:12.396Z,6.80
2019-05-10T11:47:23.454Z,5.40
2019-05-10T11:48:12.405Z,4.10
2019-05-10T11:49:12.415Z,5.40
2019-05-10T11:50:27.763Z,7.10
2019-05-10T11:51:17.329Z,4.80
2019-05-10T11:52:13.268Z,4.30
2019-05-10T11:53:17.026Z,5.80
2019-05-10T11:54:12.502Z,5.30
2019-05-10T11:55:12.525Z,6.30
2019-05-10T11:56:14.055Z,4.60
2019-05-10T11:57:13.766Z,6.20
2019-05-10T11:58:13.390Z,5.90
2019-05-10T11:59:16.423Z,5.20
2019-05-10T12:00:24.644Z,7.50
2019-05-10T12:01:17.348Z,5.50
2019-05-10T12:02:33.818Z,4.80
2019-05-10T12:03:18.327Z,5.10
2019-05-10T12:04:22.467Z,7.00
2019-05-10T12:05:19.810Z,5.30
2019-05-10T12:06:12.655Z,3.20
2019-05-10T12:07:13.143Z,5.20
2019-05-10T12:08:13.240Z,5.10
2019-05-10T12:09:12.717Z,4.40
2019-05-10T12:11:27.709Z,5.00
2019-05-10T12:12:12.763Z,4.70
2019-05-10T12:13:19.364Z,4.30
2019-05-10T12:14:13.892Z,4.60
2019-05-10T12:15:13.882Z,3.30
2019-05-10T12:16:16.873Z,5.00
2019-05-10T12:17:14.264Z,5.50
2019-05-10T12:18:14.699Z,5.10
2019-05-10T12:19:19.710Z,4.90
2019-05-10T12:20:16.921Z,4.80
2019-05-10T12:21:12.874Z,3.50
2019-05-10T12:22:15.830Z,4.10
2019-05-10T12:23:21.953Z,3.90
2019-05-10T12:25:36.092Z,4.70
2019-05-10T12:26:05.676Z,4.00
2019-05-10T12:26:17.711Z,4.50
2019-05-10T12:27:14.078Z,3.60
2019-05-10T12:27:22.002Z,6.10
2019-05-10T12:28:15.371Z,7.90
2019-05-10T12:29:16.996Z,5.20
2019-05-10T12:30:15.931Z,4.60
2019-05-10T12:31:17.047Z,4.50
2019-05-10T12:32:13.042Z,4.00
2019-05-10T12:33:24.292Z,5.40
2019-05-10T12:34:14.542Z,6.90
2019-05-10T12:35:13.081Z,5.70
2019-05-10T12:36:23.448Z,4.40
2019-05-10T12:37:13.125Z,5.50
2019-05-10T12:38:13.135Z,4.40
2019-05-10T12:39:13.144Z,5.10
2019-05-10T12:40:15.070Z,4.10
2019-05-10T12:41:13.182Z,5.50
2019-05-10T12:42:14.389Z,6.90
2019-05-10T12:43:13.192Z,5.70
2019-05-10T12:44:13.211Z,5.40
2019-05-10T12:45:13.233Z,5.70
2019-05-10T12:46:13.249Z,5.90
2019-05-10T12:47:13.262Z,3.70
2019-05-10T12:48:13.269Z,6.60
2019-05-10T12:49:13.279Z,6.30
2019-05-10T12:50:13.299Z,5.70
2019-05-10T12:51:16.337Z,6.30
2019-05-10T12:52:14.009Z,5.30
2019-05-10T12:53:18.047Z,4.90
2019-05-10T12:54:13.348Z,4.60
2019-05-10T12:55:13.362Z,6.70
2019-05-10T12:56:13.392Z,4.80
2019-05-10T12:57:13.392Z,6.60
2019-05-10T12:58:13.406Z,5.40
2019-05-10T12:59:13.452Z,5.60
2019-05-10T13:00:15.649Z,6.10
2019-05-10T13:01:13.445Z,5.70
2019-05-10T13:02:13.485Z,5.00
2019-05-10T13:03:13.751Z,5.90
2019-05-10T13:04:16.703Z,4.60
2019-05-10T13:05:15.643Z,7.50
2019-05-10T13:06:13.544Z,4.70
2019-05-10T13:07:13.551Z,8.10
2019-05-10T13:08:13.551Z,4.80
2019-05-10T13:09:13.556Z,5.60
2019-05-10T13:10:13.648Z,5.70
2019-05-10T13:11:13.686Z,6.30
2019-05-10T13:12:13.625Z,5.90
2019-05-10T13:13:17.565Z,6.20
2019-05-10T13:14:13.633Z,5.20
2019-05-10T13:15:13.653Z,4.90
2019-05-10T13:16:13.666Z,5.00
2019-05-10T13:17:16.903Z,5.00
2019-05-10T13:18:13.680Z,5.00
2019-05-10T13:19:19.971Z,6.20
2019-05-10T13:20:13.710Z,5.60
2019-05-10T13:21:20.654Z,6.10
2019-05-10T13:22:13.750Z,5.80
2019-05-10T13:23:15.979Z,4.90
2019-05-10T13:24:13.765Z,6.50
2019-05-10T13:25:13.786Z,6.10
2019-05-10T13:26:13.794Z,6.00
2019-05-10T13:27:13.806Z,5.70
2019-05-10T13:28:13.827Z,5.80
2019-05-10T13:29:13.836Z,4.00
2019-05-10T13:30:13.852Z,7.60
2019-05-10T13:31:15.232Z,5.30
2019-05-10T13:32:14.735Z,4.60
2019-05-10T13:33:27.836Z,4.30
2019-05-10T13:34:13.904Z,5.50
2019-05-10T13:35:13.916Z,5.20
2019-05-10T13:36:13.931Z,5.40
2019-05-10T13:37:22.849Z,7.10
2019-05-10T13:38:13.964Z,4.60
2019-05-10T13:39:19.098Z,5.30
2019-05-10T13:40:13.985Z,7.30
2019-05-10T13:41:17.864Z,4.30
2019-05-10T13:42:14.020Z,4.90
2019-05-10T13:43:17.313Z,6.30
2019-05-10T13:44:14.044Z,7.40
2019-05-10T13:45:14.149Z,5.60
2019-05-10T13:46:14.238Z,5.00
2019-05-10T13:47:14.084Z,4.50
2019-05-10T13:48:14.113Z,5.40
2019-05-10T13:49:14.117Z,5.10
2019-05-10T13:50:14.131Z,4.60
2019-05-10T13:51:14.144Z,7.80
2019-05-10T13:52:14.163Z,5.10
2019-05-10T13:53:20.872Z,3.80
2019-05-10T13:54:14.192Z,4.60
2019-05-10T13:55:14.210Z,6.10
2019-05-10T13:56:14.220Z,3.60
2019-05-10T13:57:14.232Z,4.70
2019-05-10T13:58:14.245Z,4.20
2019-05-10T13:59:16.273Z,4.70
2019-05-10T14:00:14.289Z,6.20
2019-05-10T14:01:14.869Z,5.10
2019-05-10T14:02:14.318Z,4.40
2019-05-10T14:03:14.326Z,5.60
2019-05-10T14:04:14.343Z,4.70
2019-05-10T14:05:17.560Z,7.40
2019-05-10T14:06:14.371Z,3.00
2019-05-10T14:07:14.391Z,5.10
2019-05-10T14:08:14.405Z,5.30
2019-05-10T14:09:14.417Z,6.20
2019-05-10T14:10:18.274Z,6.80
2019-05-10T14:11:14.446Z,6.20
2019-05-10T14:12:16.152Z,6.30
2019-05-10T14:13:16.820Z,4.20
2019-05-10T14:14:20.219Z,3.30
2019-05-10T14:15:14.583Z,4.30
2019-05-10T14:16:19.873Z,3.90
2019-05-10T14:17:14.540Z,6.10
2019-05-10T14:18:14.547Z,4.70
2019-05-10T14:19:16.098Z,6.30
2019-05-10T14:20:27.732Z,4.50
2019-05-10T14:21:14.603Z,4.70
2019-05-10T14:22:14.608Z,5.40
2019-05-10T14:23:17.741Z,5.10
2019-05-10T14:24:15.511Z,4.20
2019-05-10T14:25:14.652Z,6.00
2019-05-10T14:26:15.842Z,5.80